createdAt,value
2023-02-18T00:00:48.294Z,6.8
2023-02-18T00:05:48.855Z,6.7
2023-02-18T00:10:48.314Z,6.7
2023-02-18T00:15:48.859Z,6.8
2023-02-18T00:20:48.460Z,6.8
2023-02-18T00:25:48.906Z,6.8
2023-02-18T00:30:48.823Z,6.8
2023-02-18T00:35:48.850Z,6.8
2023-02-18T00:40:48.509Z,6.8
2023-02-18T00:45:49.027Z,6.7
2023-02-18T00:50:48.595Z,6.7
2023-02-18T00:55:49.154Z,6.7
2023-02-18T01:00:48.749Z,6.7
2023-02-18T01:05:49.181Z,6.6
2023-02-18T01:10:48.612Z,6.6
2023-02-18T01:15:48.414Z,6.6
2023-02-18T01:20:48.713Z,6.6
2023-02-18T01:25:49.022Z,6.6
2023-02-18T01:30:48.991Z,6.6
2023-02-18T01:35:49.135Z,6.5
2023-02-18T01:40:48.461Z,6.5
2023-02-18T01:45:48.912Z,6.4
2023-02-18T01:50:49.283Z,6.4
2023-02-18T01:55:48.349Z,6.4
2023-02-18T02:00:48.836Z,6.4
2023-02-18T02:05:49.125Z,6.3
2023-02-18T02:10:48.555Z,6.3
2023-02-18T02:15:48.800Z,6.3
2023-02-18T02:20:49.104Z,6.3
2023-02-18T02:25:48.643Z,6.3
2023-02-18T02:30:49.079Z,6.3
2023-02-18T02:35:49.125Z,6.2
2023-02-18T02:40:48.422Z,6.2
2023-02-18T02:45:48.858Z,6.2
2023-02-18T02:50:49.322Z,6.2
2023-02-18T02:55:48.736Z,6.2
2023-02-18T03:00:49.016Z,6.2
2023-02-18T03:05:48.961Z,6.2
2023-02-18T03:10:48.855Z,6.2
2023-02-18T03:15:48.402Z,6.2
2023-02-18T03:20:48.414Z,6.2
2023-02-18T03:25:48.552Z,6.2
2023-02-18T03:30:49.222Z,6.2
2023-02-18T03:35:48.697Z,6.3
2023-02-18T03:40:48.748Z,6.3
2023-02-18T03:45:49.108Z,6.3
2023-02-18T03:50:48.552Z,6.3
2023-02-18T03:55:48.363Z,6.3
2023-02-18T04:00:48.433Z,6.3
2023-02-18T04:05:49.034Z,6.4
2023-02-18T04:10:48.685Z,6.4
2023-02-18T04:15:48.981Z,6.4
2023-02-18T04:20:48.625Z,6.4
2023-02-18T04:25:49.117Z,6.4
2023-02-18T04:30:48.866Z,6.4
2023-02-18T04:35:48.803Z,6.4
2023-02-18T04:40:49.116Z,6.4
2023-02-18T04:45:48.472Z,6.4
2023-02-18T04:50:48.846Z,6.4
2023-02-18T04:55:48.322Z,6.3
2023-02-18T05:00:48.612Z,6.3
2023-02-18T05:05:49.243Z,6.2
2023-02-18T05:10:48.614Z,6.2
2023-02-18T05:15:48.961Z,6.2
2023-02-18T05:20:49.325Z,6.2
2023-02-18T05:25:48.500Z,6.1
2023-02-18T05:30:49.435Z,6.1
2023-02-18T05:35:48.638Z,6.1
2023-02-18T05:40:49.285Z,6.1
2023-02-18T05:45:48.524Z,6.1
2023-02-18T05:50:48.751Z,6.1
2023-02-18T05:55:48.945Z,6.1
2023-02-18T06:00:49.164Z,6.1
2023-02-18T06:05:48.480Z,6.1
2023-02-18T06:10:48.754Z,6.1
2023-02-18T06:15:48.983Z,6.1
2023-02-18T06:20:49.248Z,6.1
2023-02-18T11:25:49.163Z,7.1
2023-02-18T11:30:49.352Z,7.1
2023-02-18T11:35:49.436Z,7.6
2023-02-18T11:40:48.757Z,7.6
2023-02-18T11:45:48.913Z,7.6
2023-02-18T11:50:49.082Z,7.6
2023-02-18T11:55:49.190Z,9.1
2023-02-18T12:00:49.501Z,9.1
2023-02-18T12:05:48.672Z,9.4
2023-02-18T12:10:48.996Z,9.4
2023-02-18T12:15:49.390Z,9.5
2023-02-18T12:20:48.796Z,9.5
2023-02-18T12:25:48.915Z,9.4
2023-02-18T12:30:49.010Z,9.4
2023-02-18T12:35:49.270Z,9.4
2023-02-18T12:40:48.676Z,9.4
2023-02-18T12:45:48.974Z,9.3
2023-02-18T12:50:49.191Z,9.3
2023-02-18T12:55:49.243Z,9.2
2023-02-18T13:00:49.449Z,9.2
2023-02-18T13:05:48.573Z,9.2
2023-02-18T13:10:48.799Z,9.2
2023-02-18T13:15:49.068Z,9.2
2023-02-18T13:20:49.296Z,9.2
2023-02-18T13:25:49.359Z,9.1
2023-02-18T13:30:49.716Z,9.1
2023-02-18T13:35:48.981Z,9.1
2023-02-18T13:40:49.289Z,9.1
2023-02-18T13:45:49.534Z,9
2023-02-18T13:50:48.783Z,9
2023-02-18T13:55:49.028Z,8.9
2023-02-18T14:00:49.327Z,8.9
2023-02-18T14:05:49.580Z,8.8
2023-02-18T14:10:48.720Z,8.8
2023-02-18T14:15:49.119Z,8.6
2023-02-18T14:20:49.292Z,8.6
2023-02-18T14:25:49.338Z,8.2
2023-02-18T14:30:49.952Z,8.2
2023-02-18T14:35:49.151Z,7.3
2023-02-18T14:40:49.434Z,7.3
2023-02-18T14:45:48.683Z,7
2023-02-18T14:50:50.580Z,7
2023-02-18T14:55:48.887Z,6.6
2023-02-18T15:00:49.328Z,6.6
2023-02-18T15:05:49.273Z,6.3
2023-02-18T15:10:49.653Z,6.3
2023-02-18T15:15:49.586Z,6
2023-02-18T15:20:49.410Z,6
2023-02-18T15:25:49.011Z,5.8
2023-02-18T15:30:48.982Z,5.8
2023-02-18T15:35:48.674Z,5.8
2023-02-18T15:40:49.589Z,5.8
2023-02-18T16:00:49.359Z,5.8
2023-02-18T16:05:49.642Z,5.8
2023-02-18T16:10:49.166Z,5.8
2023-02-18T16:15:49.026Z,5.8
